sensor_id;sensor_type;location;lat;lon;timestamp;pressure;altitude;pressure_sealevel;temperature;humidity
53514;BME280;39768;54.148;12.174;2022-07-22T08:04:59;101612.56;;;18.42;nan
53514;BME280;39768;54.148;12.174;2022-07-22T08:09:02;101622.69;;;18.63;nan
53514;BME280;39768;54.148;12.174;2022-07-22T08:13:08;101622.00;;;19.09;nan
53514;BME280;39768;54.148;12.174;2022-07-22T08:17:33;101622.78;;;19.37;nan
53514;BME280;39768;54.148;12.174;2022-07-22T08:21:35;101632.00;;;19.30;nan
53514;BME280;39768;54.148;12.174;2022-07-22T08:25:54;101632.09;;;19.54;nan
53514;BME280;39768;54.148;12.174;2022-07-22T08:29:56;101637.59;;;19.24;nan
53514;BME280;39768;54.148;12.174;2022-07-22T08:33:58;101645.78;;;19.46;nan
53514;BME280;39768;54.148;12.174;2022-07-22T08:38:01;101638.59;;;19.47;nan
53514;BME280;39768;54.148;12.174;2022-07-22T08:42:03;101649.97;;;19.56;nan
53514;BME280;39768;54.148;12.174;2022-07-22T08:46:05;101646.53;;;19.51;nan
53514;BME280;39768;54.148;12.174;2022-07-22T08:50:38;101660.81;;;19.78;nan
53514;BME280;39768;54.148;12.174;2022-07-22T08:54:47;101661.63;;;19.57;nan
53514;BME280;39768;54.148;12.174;2022-07-22T08:58:51;101670.06;;;19.71;nan
53514;BME280;39768;54.148;12.174;2022-07-22T09:02:52;101659.28;;;19.71;nan
53514;BME280;39768;54.148;12.174;2022-07-22T09:06:54;101663.81;;;20.17;nan
53514;BME280;39768;54.148;12.174;2022-07-22T09:10:55;101663.75;;;20.42;nan
53514;BME280;39768;54.148;12.174;2022-07-22T09:15:15;101672.06;;;20.36;nan
53514;BME280;39768;54.148;12.174;2022-07-22T09:19:38;101666.75;;;20.11;nan
53514;BME280;39768;54.148;12.174;2022-07-22T09:24:04;101670.69;;;20.02;nan
53514;BME280;39768;54.148;12.174;2022-07-22T09:32:39;101671.13;;;19.90;nan
53514;BME280;39768;54.148;12.174;2022-07-22T09:37:01;101678.09;;;19.96;nan
53514;BME280;39768;54.148;12.174;2022-07-22T09:41:04;101680.78;;;19.73;nan
53514;BME280;39768;54.148;12.174;2022-07-22T09:45:07;101674.69;;;19.67;nan
53514;BME280;39768;54.148;12.174;2022-07-22T09:49:33;101685.81;;;20.05;nan
53514;BME280;39768;54.148;12.174;2022-07-22T09:53:54;101697.84;;;19.73;nan
53514;BME280;39768;54.148;12.174;2022-07-22T09:58:04;101697.28;;;19.88;nan
53514;BME280;39768;54.148;12.174;2022-07-22T10:02:07;101704.25;;;19.69;nan
53514;BME280;39768;54.148;12.174;2022-07-22T10:06:11;101694.09;;;19.52;nan
53514;BME280;39768;54.148;12.174;2022-07-22T10:10:17;101700.06;;;19.85;nan
53514;BME280;39768;54.148;12.174;2022-07-22T10:14:20;101694.94;;;20.26;nan
53514;BME280;39768;54.148;12.174;2022-07-22T10:18:26;101690.22;;;20.54;nan
53514;BME280;39768;54.148;12.174;2022-07-22T10:30:54;101690.09;;;20.79;nan
53514;BME280;39768;54.148;12.174;2022-07-22T10:39:12;101692.75;;;21.02;nan
53514;BME280;39768;54.148;12.174;2022-07-22T10:43:16;101695.59;;;21.41;nan
53514;BME280;39768;54.148;12.174;2022-07-22T10:47:56;101696.19;;;21.28;nan
53514;BME280;39768;54.148;12.174;2022-07-22T11:00:28;101691.56;;;21.52;nan
53514;BME280;39768;54.148;12.174;2022-07-22T11:04:29;101689.16;;;21.85;nan
53514;BME280;39768;54.148;12.174;2022-07-22T11:08:31;101693.03;;;21.59;nan
53514;BME280;39768;54.148;12.174;2022-07-22T11:12:32;101694.78;;;21.60;nan
53514;BME280;39768;54.148;12.174;2022-07-22T11:16:34;101693.22;;;21.54;nan
53514;BME280;39768;54.148;12.174;2022-07-22T11:20:35;101690.66;;;21.31;nan
53514;BME280;39768;54.148;12.174;2022-07-22T11:24:38;101690.59;;;21.32;nan
53514;BME280;39768;54.148;12.174;2022-07-22T11:28:41;101686.13;;;21.31;nan
53514;BME280;39768;54.148;12.174;2022-07-22T11:32:43;101689.22;;;21.22;nan
53514;BME280;39768;54.148;12.174;2022-07-22T11:36:46;101689.25;;;21.42;nan
53514;BME280;39768;54.148;12.174;2022-07-22T11:40:47;101683.22;;;21.56;nan
53514;BME280;39768;54.148;12.174;2022-07-22T11:44:49;101686.69;;;21.99;nan
53514;BME280;39768;54.148;12.174;2022-07-22T11:48:53;101674.78;;;21.43;nan
53514;BME280;39768;54.148;12.174;2022-07-22T11:52:55;101681.06;;;22.24;nan
53514;BME280;39768;54.148;12.174;2022-07-22T11:56:57;101687.19;;;22.46;nan
53514;BME280;39768;54.148;12.174;2022-07-22T12:00:58;101685.56;;;22.04;nan
53514;BME280;39768;54.148;12.174;2022-07-22T12:05:00;101680.47;;;21.97;nan
53514;BME280;39768;54.148;12.174;2022-07-22T12:09:22;101673.59;;;22.47;nan
53514;BME280;39768;54.148;12.174;2022-07-22T12:13:29;101684.63;;;21.85;nan
53514;BME280;39768;54.148;12.174;2022-07-22T12:17:36;101689.44;;;22.93;nan
53514;BME280;39768;54.148;12.174;2022-07-22T12:26:00;101684.06;;;22.55;nan
53514;BME280;39768;54.148;12.174;2022-07-22T12:30:12;101691.22;;;22.37;nan
53514;BME280;39768;54.148;12.174;2022-07-22T12:34:14;101691.31;;;22.55;nan
53514;BME280;39768;54.148;12.174;2022-07-22T12:38:16;101691.59;;;22.48;nan
53514;BME280;39768;54.148;12.174;2022-07-22T12:42:18;101694.22;;;22.31;nan
53514;BME280;39768;54.148;12.174;2022-07-22T12:46:19;101694.50;;;22.44;nan
53514;BME280;39768;54.148;12.174;2022-07-22T12:50:30;101684.00;;;22.93;nan
53514;BME280;39768;54.148;12.174;2022-07-22T12:54:32;101679.44;;;23.29;nan
53514;BME280;39768;54.148;12.174;2022-07-22T12:58:34;101675.97;;;22.72;nan
53514;BME280;39768;54.148;12.174;2022-07-22T13:02:38;101669.59;;;22.73;nan
53514;BME280;39768;54.148;12.174;2022-07-22T13:06:40;101678.53;;;22.57;nan
53514;BME280;39768;54.148;12.174;2022-07-22T13:10:41;101674.53;;;22.46;nan
53514;BME280;39768;54.148;12.174;2022-07-22T13:14:43;101680.28;;;22.58;nan
53514;BME280;39768;54.148;12.174;2022-07-22T13:18:44;101673.16;;;22.19;nan
53514;BME280;39768;54.148;12.174;2022-07-22T13:22:47;101675.28;;;22.50;nan
53514;BME280;39768;54.148;12.174;2022-07-22T13:26:49;101680.13;;;22.98;nan
53514;BME280;39768;54.148;12.174;2022-07-22T13:30:50;101680.97;;;22.63;nan
53514;BME280;39768;54.148;12.174;2022-07-22T13:34:52;101673.41;;;21.94;nan
53514;BME280;39768;54.148;12.174;2022-07-22T13:38:54;101677.09;;;22.49;nan
53514;BME280;39768;54.148;12.174;2022-07-22T13:42:55;101670.09;;;22.08;nan
53514;BME280;39768;54.148;12.174;2022-07-22T13:46:57;101678.94;;;22.30;nan
53514;BME280;39768;54.148;12.174;2022-07-22T13:50:59;101686.41;;;23.16;nan
53514;BME280;39768;54.148;12.174;2022-07-22T13:55:01;101683.88;;;22.58;nan
53514;BME280;39768;54.148;12.174;2022-07-22T13:59:03;101683.28;;;22.89;nan
53514;BME280;39768;54.148;12.174;2022-07-22T14:03:05;101687.66;;;22.56;nan
53514;BME280;39768;54.148;12.174;2022-07-22T14:07:07;101694.13;;;22.70;nan
53514;BME280;39768;54.148;12.174;2022-07-22T14:11:12;101687.66;;;22.37;nan
53514;BME280;39768;54.148;12.174;2022-07-22T14:15:14;101691.50;;;23.05;nan
53514;BME280;39768;54.148;12.174;2022-07-22T14:19:16;101679.84;;;22.85;nan
53514;BME280;39768;54.148;12.174;2022-07-22T14:23:17;101684.03;;;22.17;nan
53514;BME280;39768;54.148;12.174;2022-07-22T14:27:24;101682.56;;;22.85;nan
53514;BME280;39768;54.148;12.174;2022-07-22T14:31:26;101677.47;;;22.79;nan
53514;BME280;39768;54.148;12.174;2022-07-22T14:35:28;101672.16;;;22.40;nan
53514;BME280;39768;54.148;12.174;2022-07-22T14:39:29;101677.03;;;22.51;nan
53514;BME280;39768;54.148;12.174;2022-07-22T14:43:31;101677.78;;;22.91;nan
53514;BME280;39768;54.148;12.174;2022-07-22T14:47:36;101684.91;;;23.10;nan
53514;BME280;39768;54.148;12.174;2022-07-22T14:51:38;101678.19;;;22.83;nan
53514;BME280;39768;54.148;12.174;2022-07-22T14:55:40;101676.75;;;22.74;nan
53514;BME280;39768;54.148;12.174;2022-07-22T14:59:41;101679.78;;;22.87;nan
53514;BME280;39768;54.148;12.174;2022-07-22T15:03:43;101681.66;;;23.38;nan
53514;BME280;39768;54.148;12.174;2022-07-22T15:07:44;101683.00;;;23.12;nan
53514;BME280;39768;54.148;12.174;2022-07-22T15:11:46;101685.81;;;23.28;nan
53514;BME280;39768;54.148;12.174;2022-07-22T15:15:48;101671.50;;;22.90;nan
53514;BME280;39768;54.148;12.174;2022-07-22T15:19:50;101680.53;;;23.08;nan
53514;BME280;39768;54.148;12.174;2022-07-22T15:23:51;101680.34;;;22.94;nan
53514;BME280;39768;54.148;12.174;2022-07-22T15:27:53;101673.09;;;22.75;nan
53514;BME280;39768;54.148;12.174;2022-07-22T15:32:15;101674.88;;;22.95;nan
53514;BME280;39768;54.148;12.174;2022-07-22T15:36:16;101674.03;;;22.20;nan
53514;BME280;39768;54.148;12.174;2022-07-22T15:40:18;101666.97;;;22.72;nan
53514;BME280;39768;54.148;12.174;2022-07-22T15:44:22;101668.75;;;23.26;nan
53514;BME280;39768;54.148;12.174;2022-07-22T15:48:24;101673.44;;;22.69;nan
53514;BME280;39768;54.148;12.174;2022-07-22T15:52:25;101674.53;;;22.84;nan
53514;BME280;39768;54.148;12.174;2022-07-22T15:56:27;101677.97;;;22.31;nan
53514;BME280;39768;54.148;12.174;2022-07-22T16:00:30;101684.78;;;22.40;nan
53514;BME280;39768;54.148;12.174;2022-07-22T16:04:32;101677.78;;;22.36;nan
53514;BME280;39768;54.148;12.174;2022-07-22T16:08:33;101660.19;;;22.63;nan
53514;BME280;39768;54.148;12.174;2022-07-22T16:12:35;101668.78;;;22.71;nan
53514;BME280;39768;54.148;12.174;2022-07-22T16:16:37;101659.84;;;22.52;nan
53514;BME280;39768;54.148;12.174;2022-07-22T16:20:42;101665.72;;;22.24;nan
53514;BME280;39768;54.148;12.174;2022-07-22T16:24:44;101667.69;;;22.21;nan
53514;BME280;39768;54.148;12.174;2022-07-22T16:28:46;101675.63;;;22.05;nan
53514;BME280;39768;54.148;12.174;2022-07-22T16:32:47;101675.06;;;22.17;nan
53514;BME280;39768;54.148;12.174;2022-07-22T16:36:52;101662.16;;;22.41;nan
53514;BME280;39768;54.148;12.174;2022-07-22T16:40:54;101669.53;;;22.56;nan
53514;BME280;39768;54.148;12.174;2022-07-22T16:44:55;101673.03;;;22.96;nan
53514;BME280;39768;54.148;12.174;2022-07-22T16:48:57;101664.81;;;23.83;nan
53514;BME280;39768;54.148;12.174;2022-07-22T16:52:59;101657.25;;;24.21;nan
53514;BME280;39768;54.148;12.174;2022-07-22T16:57:00;101661.59;;;25.04;nan
53514;BME280;39768;54.148;12.174;2022-07-22T17:01:02;101666.31;;;24.85;nan
53514;BME280;39768;54.148;12.174;2022-07-22T17:05:04;101662.53;;;25.33;nan
53514;BME280;39768;54.148;12.174;2022-07-22T17:09:06;101663.88;;;25.70;nan
53514;BME280;39768;54.148;12.174;2022-07-22T17:13:08;101658.78;;;25.50;nan
53514;BME280;39768;54.148;12.174;2022-07-22T17:17:28;101661.25;;;25.24;nan
53514;BME280;39768;54.148;12.174;2022-07-22T17:21:30;101656.97;;;25.20;nan
53514;BME280;39768;54.148;12.174;2022-07-22T17:25:31;101661.06;;;24.98;nan
53514;BME280;39768;54.148;12.174;2022-07-22T17:29:32;101659.97;;;25.16;nan
53514;BME280;39768;54.148;12.174;2022-07-22T17:33:34;101659.78;;;24.09;nan
53514;BME280;39768;54.148;12.174;2022-07-22T17:37:36;101670.03;;;23.71;nan
53514;BME280;39768;54.148;12.174;2022-07-22T17:41:39;101666.38;;;23.54;nan
53514;BME280;39768;54.148;12.174;2022-07-22T17:45:40;101670.66;;;22.52;nan
53514;BME280;39768;54.148;12.174;2022-07-22T17:49:42;101673.41;;;21.94;nan
53514;BME280;39768;54.148;12.174;2022-07-22T17:53:43;101672.91;;;21.66;nan
53514;BME280;39768;54.148;12.174;2022-07-22T17:57:45;101676.41;;;21.48;nan
53514;BME280;39768;54.148;12.174;2022-07-22T18:01:46;101673.34;;;21.96;nan
53514;BME280;39768;54.148;12.174;2022-07-22T18:05:49;101666.94;;;21.58;nan
53514;BME280;39768;54.148;12.174;2022-07-22T18:09:51;101669.06;;;21.51;nan
53514;BME280;39768;54.148;12.174;2022-07-22T18:13:53;101663.06;;;20.59;nan
53514;BME280;39768;54.148;12.174;2022-07-22T18:17:54;101667.03;;;20.27;nan
53514;BME280;39768;54.148;12.174;2022-07-22T18:21:56;101666.53;;;19.69;nan
53514;BME280;39768;54.148;12.174;2022-07-22T18:25:57;101664.47;;;19.52;nan
53514;BME280;39768;54.148;12.174;2022-07-22T18:30:00;101665.34;;;19.53;nan
53514;BME280;39768;54.148;12.174;2022-07-22T18:34:02;101673.53;;;19.48;nan
53514;BME280;39768;54.148;12.174;2022-07-22T18:38:03;101671.50;;;19.56;nan
53514;BME280;39768;54.148;12.174;2022-07-22T18:42:05;101670.41;;;19.35;nan
53514;BME280;39768;54.148;12.174;2022-07-22T18:46:06;101667.16;;;18.99;nan
53514;BME280;39768;54.148;12.174;2022-07-22T18:50:09;101676.38;;;18.92;nan
53514;BME280;39768;54.148;12.174;2022-07-22T18:54:10;101672.63;;;18.98;nan
53514;BME280;39768;54.148;12.174;2022-07-22T18:58:12;101666.88;;;18.82;nan
53514;BME280;39768;54.148;12.174;2022-07-22T19:02:13;101661.72;;;18.75;nan
53514;BME280;39768;54.148;12.174;2022-07-22T19:06:15;101664.09;;;18.56;nan
53514;BME280;39768;54.148;12.174;2022-07-22T19:10:17;101661.53;;;18.53;nan
53514;BME280;39768;54.148;12.174;2022-07-22T19:14:18;101666.16;;;18.48;nan
53514;BME280;39768;54.148;12.174;2022-07-22T19:18:20;101668.72;;;18.52;nan
53514;BME280;39768;54.148;12.174;2022-07-22T19:22:23;101669.88;;;18.44;nan
53514;BME280;39768;54.148;12.174;2022-07-22T19:26:25;101673.78;;;18.33;nan
53514;BME280;39768;54.148;12.174;2022-07-22T19:30:26;101675.88;;;18.24;nan
53514;BME280;39768;54.148;12.174;2022-07-22T19:34:28;101681.53;;;18.15;nan
53514;BME280;39768;54.148;12.174;2022-07-22T19:38:29;101677.44;;;18.02;nan
53514;BME280;39768;54.148;12.174;2022-07-22T19:42:31;101677.22;;;18.09;nan
53514;BME280;39768;54.148;12.174;2022-07-22T19:46:33;101675.50;;;18.07;nan
53514;BME280;39768;54.148;12.174;2022-07-22T19:50:35;101674.72;;;18.03;nan
53514;BME280;39768;54.148;12.174;2022-07-22T19:54:36;101678.50;;;17.96;nan
53514;BME280;39768;54.148;12.174;2022-07-22T19:58:38;101672.94;;;18.02;nan
53514;BME280;39768;54.148;12.174;2022-07-22T20:02:40;101680.34;;;17.95;nan
53514;BME280;39768;54.148;12.174;2022-07-22T20:06:48;101680.13;;;18.02;100.00
53514;BME280;39768;54.148;12.174;2022-07-22T20:10:49;101685.59;;;17.98;100.00
53514;BME280;39768;54.148;12.174;2022-07-22T20:14:51;101689.47;;;17.88;100.00
53514;BME280;39768;54.148;12.174;2022-07-22T20:18:52;101683.94;;;17.94;100.00
53514;BME280;39768;54.148;12.174;2022-07-22T20:22:54;101688.38;;;17.95;100.00
53514;BME280;39768;54.148;12.174;2022-07-22T20:26:55;101679.38;;;17.96;100.00
53514;BME280;39768;54.148;12.174;2022-07-22T20:30:57;101673.31;;;17.90;100.00
53514;BME280;39768;54.148;12.174;2022-07-22T20:34:59;101676.41;;;17.76;100.00
53514;BME280;39768;54.148;12.174;2022-07-22T20:39:00;101676.66;;;17.67;100.00
53514;BME280;39768;54.148;12.174;2022-07-22T20:43:02;101680.00;;;17.75;100.00
53514;BME280;39768;54.148;12.174;2022-07-22T20:47:07;101669.63;;;17.61;100.00
53514;BME280;39768;54.148;12.174;2022-07-22T20:51:09;101673.19;;;17.62;100.00
53514;BME280;39768;54.148;12.174;2022-07-22T20:55:10;101669.28;;;17.41;100.00
53514;BME280;39768;54.148;12.174;2022-07-22T20:59:12;101672.31;;;17.61;100.00
53514;BME280;39768;54.148;12.174;2022-07-22T21:03:13;101678.03;;;17.15;100.00
53514;BME280;39768;54.148;12.174;2022-07-22T21:07:15;101679.75;;;17.18;100.00
53514;BME280;39768;54.148;12.174;2022-07-22T21:11:16;101677.38;;;17.40;100.00
53514;BME280;39768;54.148;12.174;2022-07-22T21:15:18;101677.59;;;17.32;100.00
53514;BME280;39768;54.148;12.174;2022-07-22T21:19:19;101671.75;;;17.50;100.00
53514;BME280;39768;54.148;12.174;2022-07-22T21:23:21;101671.28;;;17.35;100.00
53514;BME280;39768;54.148;12.174;2022-07-22T21:27:23;101672.97;;;17.37;100.00
53514;BME280;39768;54.148;12.174;2022-07-22T21:31:29;101671.22;;;17.36;100.00
53514;BME280;39768;54.148;12.174;2022-07-22T21:35:31;101674.69;;;17.40;100.00
53514;BME280;39768;54.148;12.174;2022-07-22T21:39:33;101666.41;;;17.49;100.00
53514;BME280;39768;54.148;12.174;2022-07-22T21:43:35;101667.81;;;17.30;100.00
53514;BME280;39768;54.148;12.174;2022-07-22T21:47:37;101663.44;;;17.25;100.00
53514;BME280;39768;54.148;12.174;2022-07-22T21:51:40;101658.78;;;17.34;100.00
53514;BME280;39768;54.148;12.174;2022-07-22T21:55:43;101649.81;;;17.35;100.00
53514;BME280;39768;54.148;12.174;2022-07-22T22:00:09;101651.09;;;17.20;100.00
53514;BME280;39768;54.148;12.174;2022-07-22T22:04:14;101656.28;;;17.26;100.00
53514;BME280;39768;54.148;12.174;2022-07-22T22:08:16;101639.19;;;17.30;100.00
53514;BME280;39768;54.148;12.174;2022-07-22T22:12:17;101648.06;;;17.32;100.00
53514;BME280;39768;54.148;12.174;2022-07-22T22:16:19;101652.78;;;17.22;100.00
53514;BME280;39768;54.148;12.174;2022-07-22T22:20:20;101644.53;;;17.30;100.00
53514;BME280;39768;54.148;12.174;2022-07-22T22:24:22;101649.34;;;17.19;100.00
53514;BME280;39768;54.148;12.174;2022-07-22T22:28:23;101666.13;;;17.25;100.00
53514;BME280;39768;54.148;12.174;2022-07-22T22:32:25;101668.78;;;17.27;100.00
53514;BME280;39768;54.148;12.174;2022-07-22T22:36:27;101667.06;;;17.24;100.00
53514;BME280;39768;54.148;12.174;2022-07-22T22:40:29;101661.09;;;17.13;100.00
53514;BME280;39768;54.148;12.174;2022-07-22T22:44:30;101664.25;;;16.95;100.00
53514;BME280;39768;54.148;12.174;2022-07-22T22:48:33;101669.47;;;17.01;100.00
53514;BME280;39768;54.148;12.174;2022-07-22T22:52:35;101669.53;;;16.98;100.00
53514;BME280;39768;54.148;12.174;2022-07-22T22:56:36;101671.53;;;16.90;100.00
53514;BME280;39768;54.148;12.174;2022-07-22T23:00:38;101663.03;;;16.73;100.00
53514;BME280;39768;54.148;12.174;2022-07-22T23:04:39;101662.88;;;16.79;100.00
53514;BME280;39768;54.148;12.174;2022-07-22T23:08:41;101666.38;;;16.81;100.00
53514;BME280;39768;54.148;12.174;2022-07-22T23:12:42;101661.47;;;16.63;100.00
53514;BME280;39768;54.148;12.174;2022-07-22T23:16:44;101643.47;;;16.68;100.00
53514;BME280;39768;54.148;12.174;2022-07-22T23:20:46;101641.53;;;16.74;100.00
53514;BME280;39768;54.148;12.174;2022-07-22T23:24:52;101654.84;;;16.77;100.00
53514;BME280;39768;54.148;12.174;2022-07-22T23:28:53;101628.50;;;16.57;100.00
53514;BME280;39768;54.148;12.174;2022-07-22T23:32:55;101635.38;;;16.71;100.00
53514;BME280;39768;54.148;12.174;2022-07-22T23:36:57;101633.53;;;16.73;100.00
53514;BME280;39768;54.148;12.174;2022-07-22T23:40:58;101630.72;;;16.40;100.00
53514;BME280;39768;54.148;12.174;2022-07-22T23:45:04;101628.03;;;16.40;100.00
53514;BME280;39768;54.148;12.174;2022-07-22T23:49:06;101627.78;;;16.51;100.00
53514;BME280;39768;54.148;12.174;2022-07-22T23:53:08;101623.25;;;16.53;100.00
53514;BME280;39768;54.148;12.174;2022-07-22T23:57:09;101618.91;;;16.47;100.00
